sensor_id;sensor_type;location;lat;lon;timestamp;temperature;humidity
65972;SHT31;52726;48.852;9.152;2022-08-21T00:00:19;15.79;72.44
65972;SHT31;52726;48.852;9.152;2022-08-21T00:02:57;15.79;72.49
65972;SHT31;52726;48.852;9.152;2022-08-21T00:05:24;15.79;73.12
65972;SHT31;52726;48.852;9.152;2022-08-21T00:07:50;15.74;74.01
65972;SHT31;52726;48.852;9.152;2022-08-21T00:10:16;15.58;74.34
65972;SHT31;52726;48.852;9.152;2022-08-21T00:12:42;15.47;75.48
65972;SHT31;52726;48.852;9.152;2022-08-21T00:15:10;15.37;75.33
65972;SHT31;52726;48.852;9.152;2022-08-21T00:17:36;15.28;76.02
65972;SHT31;52726;48.852;9.152;2022-08-21T00:20:05;15.19;76.83
65972;SHT31;52726;48.852;9.152;2022-08-21T00:22:31;15.19;76.95
65972;SHT31;52726;48.852;9.152;2022-08-21T00:24:56;15.14;77.38
65972;SHT31;52726;48.852;9.152;2022-08-21T00:27:22;15.07;77.10
65972;SHT31;52726;48.852;9.152;2022-08-21T00:29:47;15.04;76.90
65972;SHT31;52726;48.852;9.152;2022-08-21T00:32:12;14.97;77.23
65972;SHT31;52726;48.852;9.152;2022-08-21T00:34:38;14.88;77.78
65972;SHT31;52726;48.852;9.152;2022-08-21T00:37:03;14.79;78.27
65972;SHT31;52726;48.852;9.152;2022-08-21T00:39:29;14.71;78.64
65972;SHT31;52726;48.852;9.152;2022-08-21T00:41:54;14.61;78.96
65972;SHT31;52726;48.852;9.152;2022-08-21T00:44:20;14.57;79.46
65972;SHT31;52726;48.852;9.152;2022-08-21T00:46:45;14.58;80.01
65972;SHT31;52726;48.852;9.152;2022-08-21T00:49:12;14.55;79.96
65972;SHT31;52726;48.852;9.152;2022-08-21T00:51:55;14.57;79.99
65972;SHT31;52726;48.852;9.152;2022-08-21T00:54:25;14.58;79.11
65972;SHT31;52726;48.852;9.152;2022-08-21T00:56:54;14.57;80.31
65972;SHT31;52726;48.852;9.152;2022-08-21T00:59:21;14.57;80.23
65972;SHT31;52726;48.852;9.152;2022-08-21T01:01:47;14.54;80.15
65972;SHT31;52726;48.852;9.152;2022-08-21T01:04:13;14.54;80.81
65972;SHT31;52726;48.852;9.152;2022-08-21T01:06:38;14.49;80.96
65972;SHT31;52726;48.852;9.152;2022-08-21T01:09:04;14.38;80.76
65972;SHT31;52726;48.852;9.152;2022-08-21T01:11:30;14.31;80.97
65972;SHT31;52726;48.852;9.152;2022-08-21T01:13:56;14.25;81.00
65972;SHT31;52726;48.852;9.152;2022-08-21T01:16:22;14.21;80.72
65972;SHT31;52726;48.852;9.152;2022-08-21T01:18:48;14.17;81.32
65972;SHT31;52726;48.852;9.152;2022-08-21T01:21:20;14.20;81.72
65972;SHT31;52726;48.852;9.152;2022-08-21T01:23:49;14.13;81.95
65972;SHT31;52726;48.852;9.152;2022-08-21T01:26:17;14.14;81.61
65972;SHT31;52726;48.852;9.152;2022-08-21T01:28:57;14.14;82.73
65972;SHT31;52726;48.852;9.152;2022-08-21T01:31:25;14.10;83.08
65972;SHT31;52726;48.852;9.152;2022-08-21T01:33:51;14.04;83.33
65972;SHT31;52726;48.852;9.152;2022-08-21T01:36:17;13.93;83.08
65972;SHT31;52726;48.852;9.152;2022-08-21T01:38:42;13.93;83.08
65972;SHT31;52726;48.852;9.152;2022-08-21T01:41:08;13.90;82.85
65972;SHT31;52726;48.852;9.152;2022-08-21T01:43:33;13.83;82.12
65972;SHT31;52726;48.852;9.152;2022-08-21T01:45:58;13.83;82.17
65972;SHT31;52726;48.852;9.152;2022-08-21T01:48:24;13.82;82.16
65972;SHT31;52726;48.852;9.152;2022-08-21T01:50:49;13.80;82.09
65972;SHT31;52726;48.852;9.152;2022-08-21T01:53:15;13.80;81.79
65972;SHT31;52726;48.852;9.152;2022-08-21T01:55:41;13.73;82.53
65972;SHT31;52726;48.852;9.152;2022-08-21T01:58:07;13.65;82.59
65972;SHT31;52726;48.852;9.152;2022-08-21T02:00:33;13.56;83.18
65972;SHT31;52726;48.852;9.152;2022-08-21T02:02:58;13.54;83.80
65972;SHT31;52726;48.852;9.152;2022-08-21T02:05:23;13.48;84.28
65972;SHT31;52726;48.852;9.152;2022-08-21T02:07:51;13.52;84.30
65972;SHT31;52726;48.852;9.152;2022-08-21T02:10:21;13.52;84.16
65972;SHT31;52726;48.852;9.152;2022-08-21T02:12:47;13.55;84.77
65972;SHT31;52726;48.852;9.152;2022-08-21T02:15:12;13.55;83.85
65972;SHT31;52726;48.852;9.152;2022-08-21T02:17:40;13.52;84.13
65972;SHT31;52726;48.852;9.152;2022-08-21T02:20:07;13.48;84.41
65972;SHT31;52726;48.852;9.152;2022-08-21T02:22:32;13.46;84.12
65972;SHT31;52726;48.852;9.152;2022-08-21T02:24:58;13.39;83.49
65972;SHT31;52726;48.852;9.152;2022-08-21T02:27:24;13.39;84.45
65972;SHT31;52726;48.852;9.152;2022-08-21T02:29:50;13.41;84.02
65972;SHT31;52726;48.852;9.152;2022-08-21T02:32:15;13.42;83.30
65972;SHT31;52726;48.852;9.152;2022-08-21T02:34:40;13.38;84.37
65972;SHT31;52726;48.852;9.152;2022-08-21T02:37:06;13.31;84.07
65972;SHT31;52726;48.852;9.152;2022-08-21T02:39:31;13.27;84.39
65972;SHT31;52726;48.852;9.152;2022-08-21T02:41:56;13.19;84.37
65972;SHT31;52726;48.852;9.152;2022-08-21T02:44:22;13.19;84.23
65972;SHT31;52726;48.852;9.152;2022-08-21T02:46:47;13.12;84.89
65972;SHT31;52726;48.852;9.152;2022-08-21T02:49:12;13.11;85.44
65972;SHT31;52726;48.852;9.152;2022-08-21T02:51:38;13.07;84.83
65972;SHT31;52726;48.852;9.152;2022-08-21T02:54:03;13.10;84.86
65972;SHT31;52726;48.852;9.152;2022-08-21T02:56:29;13.12;85.69
65972;SHT31;52726;48.852;9.152;2022-08-21T02:58:54;13.10;85.58
65972;SHT31;52726;48.852;9.152;2022-08-21T03:01:20;13.07;85.91
65972;SHT31;52726;48.852;9.152;2022-08-21T03:03:47;13.01;85.37
65972;SHT31;52726;48.852;9.152;2022-08-21T03:06:16;13.04;85.17
65972;SHT31;52726;48.852;9.152;2022-08-21T03:08:42;12.96;84.88
65972;SHT31;52726;48.852;9.152;2022-08-21T03:11:09;12.97;85.56
65972;SHT31;52726;48.852;9.152;2022-08-21T03:13:35;12.91;85.72
65972;SHT31;52726;48.852;9.152;2022-08-21T03:16:00;12.90;85.75
65972;SHT31;52726;48.852;9.152;2022-08-21T03:18:26;12.83;85.81
65972;SHT31;52726;48.852;9.152;2022-08-21T03:20:51;12.81;85.40
65972;SHT31;52726;48.852;9.152;2022-08-21T03:23:17;12.80;86.07
65972;SHT31;52726;48.852;9.152;2022-08-21T03:25:44;12.79;85.38
65972;SHT31;52726;48.852;9.152;2022-08-21T03:28:13;12.73;85.80
65972;SHT31;52726;48.852;9.152;2022-08-21T03:30:40;12.72;85.98
65972;SHT31;52726;48.852;9.152;2022-08-21T03:33:05;12.75;86.17
65972;SHT31;52726;48.852;9.152;2022-08-21T03:35:31;12.70;86.13
65972;SHT31;52726;48.852;9.152;2022-08-21T03:37:56;12.72;87.22
65972;SHT31;52726;48.852;9.152;2022-08-21T03:40:22;12.73;86.52
65972;SHT31;52726;48.852;9.152;2022-08-21T03:42:49;12.73;85.43
65972;SHT31;52726;48.852;9.152;2022-08-21T03:45:16;12.77;86.45
65972;SHT31;52726;48.852;9.152;2022-08-21T03:48:00;12.79;86.90
65972;SHT31;52726;48.852;9.152;2022-08-21T03:50:31;12.76;86.84
65972;SHT31;52726;48.852;9.152;2022-08-21T03:52:57;12.73;86.44
65972;SHT31;52726;48.852;9.152;2022-08-21T03:55:24;12.73;86.13
65972;SHT31;52726;48.852;9.152;2022-08-21T03:57:50;12.67;85.81
65972;SHT31;52726;48.852;9.152;2022-08-21T04:00:16;12.57;86.71
65972;SHT31;52726;48.852;9.152;2022-08-21T04:02:42;12.50;86.62
65972;SHT31;52726;48.852;9.152;2022-08-21T04:05:10;12.49;86.40
65972;SHT31;52726;48.852;9.152;2022-08-21T04:07:35;12.45;86.31
65972;SHT31;52726;48.852;9.152;2022-08-21T04:10:02;12.42;86.73
65972;SHT31;52726;48.852;9.152;2022-08-21T04:12:27;12.39;86.35
65972;SHT31;52726;48.852;9.152;2022-08-21T04:14:53;12.36;86.71
65972;SHT31;52726;48.852;9.152;2022-08-21T04:17:18;12.35;87.35
65972;SHT31;52726;48.852;9.152;2022-08-21T04:19:44;12.32;87.35
65972;SHT31;52726;48.852;9.152;2022-08-21T04:22:09;12.31;87.21
65972;SHT31;52726;48.852;9.152;2022-08-21T04:24:35;12.28;87.47
65972;SHT31;52726;48.852;9.152;2022-08-21T04:27:00;12.31;88.11
65972;SHT31;52726;48.852;9.152;2022-08-21T04:29:26;12.33;87.43
65972;SHT31;52726;48.852;9.152;2022-08-21T04:31:51;12.32;86.36
65972;SHT31;52726;48.852;9.152;2022-08-21T04:34:17;12.32;87.47
65972;SHT31;52726;48.852;9.152;2022-08-21T04:36:43;12.38;88.41
65972;SHT31;52726;48.852;9.152;2022-08-21T04:39:08;12.36;87.84
65972;SHT31;52726;48.852;9.152;2022-08-21T04:41:34;12.38;87.99
65972;SHT31;52726;48.852;9.152;2022-08-21T04:44:01;12.41;88.36
65972;SHT31;52726;48.852;9.152;2022-08-21T04:46:26;12.39;87.82
65972;SHT31;52726;48.852;9.152;2022-08-21T04:48:51;12.43;88.49
65972;SHT31;52726;48.852;9.152;2022-08-21T04:51:46;12.48;88.96
65972;SHT31;52726;48.852;9.152;2022-08-21T04:54:19;12.50;89.01
65972;SHT31;52726;48.852;9.152;2022-08-21T04:56:49;12.49;88.65
65972;SHT31;52726;48.852;9.152;2022-08-21T04:59:28;12.52;88.54
65972;SHT31;52726;48.852;9.152;2022-08-21T05:01:55;12.53;88.44
65972;SHT31;52726;48.852;9.152;2022-08-21T05:04:24;12.55;88.69
65972;SHT31;52726;48.852;9.152;2022-08-21T05:06:50;12.56;88.10
65972;SHT31;52726;48.852;9.152;2022-08-21T05:09:18;12.60;88.37
65972;SHT31;52726;48.852;9.152;2022-08-21T05:11:44;12.64;88.61
65972;SHT31;52726;48.852;9.152;2022-08-21T05:14:11;12.72;88.64
65972;SHT31;52726;48.852;9.152;2022-08-21T05:16:36;12.73;88.54
65972;SHT31;52726;48.852;9.152;2022-08-21T05:19:02;12.80;88.43
65972;SHT31;52726;48.852;9.152;2022-08-21T05:21:27;12.83;88.45
65972;SHT31;52726;48.852;9.152;2022-08-21T05:23:52;12.91;87.82
65972;SHT31;52726;48.852;9.152;2022-08-21T05:26:17;12.93;88.00
65972;SHT31;52726;48.852;9.152;2022-08-21T05:28:43;13.04;88.00
65972;SHT31;52726;48.852;9.152;2022-08-21T05:31:08;13.08;88.25
65972;SHT31;52726;48.852;9.152;2022-08-21T05:33:34;13.17;88.16
65972;SHT31;52726;48.852;9.152;2022-08-21T05:35:59;13.25;87.51
65972;SHT31;52726;48.852;9.152;2022-08-21T05:38:27;13.34;87.24
65972;SHT31;52726;48.852;9.152;2022-08-21T05:40:53;13.45;86.97
65972;SHT31;52726;48.852;9.152;2022-08-21T05:43:19;13.59;87.51
65972;SHT31;52726;48.852;9.152;2022-08-21T05:45:44;13.67;86.38
65972;SHT31;52726;48.852;9.152;2022-08-21T05:48:13;13.77;85.54
65972;SHT31;52726;48.852;9.152;2022-08-21T05:50:39;13.93;84.82
65972;SHT31;52726;48.852;9.152;2022-08-21T05:53:05;14.00;84.58
65972;SHT31;52726;48.852;9.152;2022-08-21T05:55:30;14.14;84.25
65972;SHT31;52726;48.852;9.152;2022-08-21T05:57:56;14.30;83.65
65972;SHT31;52726;48.852;9.152;2022-08-21T06:00:21;14.40;83.39
65972;SHT31;52726;48.852;9.152;2022-08-21T06:02:48;14.51;83.31
65972;SHT31;52726;48.852;9.152;2022-08-21T06:05:14;14.65;83.42
65972;SHT31;52726;48.852;9.152;2022-08-21T06:07:39;14.82;82.28
65972;SHT31;52726;48.852;9.152;2022-08-21T06:10:05;14.90;82.12
65972;SHT31;52726;48.852;9.152;2022-08-21T06:12:31;15.10;80.96
65972;SHT31;52726;48.852;9.152;2022-08-21T06:14:56;15.27;81.12
65972;SHT31;52726;48.852;9.152;2022-08-21T06:17:21;15.50;79.68
65972;SHT31;52726;48.852;9.152;2022-08-21T06:19:52;15.65;79.11
65972;SHT31;52726;48.852;9.152;2022-08-21T06:22:18;15.83;79.00
65972;SHT31;52726;48.852;9.152;2022-08-21T06:24:43;16.02;77.86
65972;SHT31;52726;48.852;9.152;2022-08-21T06:27:09;16.17;76.74
65972;SHT31;52726;48.852;9.152;2022-08-21T06:29:34;16.34;76.44
65972;SHT31;52726;48.852;9.152;2022-08-21T06:32:00;16.53;76.34
65972;SHT31;52726;48.852;9.152;2022-08-21T06:34:25;16.77;75.41
65972;SHT31;52726;48.852;9.152;2022-08-21T06:36:51;17.01;75.14
65972;SHT31;52726;48.852;9.152;2022-08-21T06:39:16;17.30;73.71
65972;SHT31;52726;48.852;9.152;2022-08-21T06:41:41;17.77;70.57
65972;SHT31;52726;48.852;9.152;2022-08-21T06:44:07;18.76;70.04
65972;SHT31;52726;48.852;9.152;2022-08-21T06:46:32;19.59;67.10
65972;SHT31;52726;48.852;9.152;2022-08-21T06:48:59;20.38;65.26
65972;SHT31;52726;48.852;9.152;2022-08-21T06:51:25;21.07;62.10
65972;SHT31;52726;48.852;9.152;2022-08-21T06:53:51;21.77;59.56
65972;SHT31;52726;48.852;9.152;2022-08-21T06:56:17;22.09;58.67
65972;SHT31;52726;48.852;9.152;2022-08-21T06:58:43;22.47;58.45
65972;SHT31;52726;48.852;9.152;2022-08-21T07:01:08;22.91;55.08
65972;SHT31;52726;48.852;9.152;2022-08-21T07:03:36;23.27;55.35
65972;SHT31;52726;48.852;9.152;2022-08-21T07:06:03;23.54;53.83
65972;SHT31;52726;48.852;9.152;2022-08-21T07:08:29;22.99;52.62
65972;SHT31;52726;48.852;9.152;2022-08-21T07:10:59;22.94;53.53
65972;SHT31;52726;48.852;9.152;2022-08-21T07:13:25;22.61;53.82
65972;SHT31;52726;48.852;9.152;2022-08-21T07:15:51;22.82;51.64
65972;SHT31;52726;48.852;9.152;2022-08-21T07:18:17;23.68;53.60
65972;SHT31;52726;48.852;9.152;2022-08-21T07:20:42;23.33;48.86
65972;SHT31;52726;48.852;9.152;2022-08-21T07:23:11;23.73;52.70
65972;SHT31;52726;48.852;9.152;2022-08-21T07:25:38;23.68;49.39
65972;SHT31;52726;48.852;9.152;2022-08-21T07:28:03;23.64;50.81
65972;SHT31;52726;48.852;9.152;2022-08-21T07:30:29;23.68;50.65
65972;SHT31;52726;48.852;9.152;2022-08-21T07:32:54;23.73;49.45
65972;SHT31;52726;48.852;9.152;2022-08-21T07:35:21;23.29;50.30
65972;SHT31;52726;48.852;9.152;2022-08-21T07:37:47;23.24;51.59
65972;SHT31;52726;48.852;9.152;2022-08-21T07:40:13;24.02;51.50
65972;SHT31;52726;48.852;9.152;2022-08-21T07:42:47;24.08;49.04
65972;SHT31;52726;48.852;9.152;2022-08-21T07:45:22;23.36;50.13
65972;SHT31;52726;48.852;9.152;2022-08-21T07:47:49;24.02;49.81
65972;SHT31;52726;48.852;9.152;2022-08-21T07:50:15;24.49;49.98
65972;SHT31;52726;48.852;9.152;2022-08-21T07:52:41;24.15;50.34
65972;SHT31;52726;48.852;9.152;2022-08-21T07:55:10;23.97;50.77
65972;SHT31;52726;48.852;9.152;2022-08-21T07:57:36;24.25;49.01
65972;SHT31;52726;48.852;9.152;2022-08-21T08:00:03;25.25;49.31
65972;SHT31;52726;48.852;9.152;2022-08-21T08:02:29;24.84;48.71
65972;SHT31;52726;48.852;9.152;2022-08-21T08:05:00;24.48;50.39
65972;SHT31;52726;48.852;9.152;2022-08-21T08:07:26;25.21;49.45
65972;SHT31;52726;48.852;9.152;2022-08-21T08:09:51;25.24;48.97
65972;SHT31;52726;48.852;9.152;2022-08-21T08:12:16;25.56;48.72
65972;SHT31;52726;48.852;9.152;2022-08-21T08:14:42;25.70;48.56
65972;SHT31;52726;48.852;9.152;2022-08-21T08:17:07;25.21;49.40
65972;SHT31;52726;48.852;9.152;2022-08-21T08:19:32;25.25;47.27
65972;SHT31;52726;48.852;9.152;2022-08-21T08:21:58;25.27;47.43
65972;SHT31;52726;48.852;9.152;2022-08-21T08:24:23;25.18;50.30
65972;SHT31;52726;48.852;9.152;2022-08-21T08:26:48;25.19;49.49
65972;SHT31;52726;48.852;9.152;2022-08-21T08:29:14;25.29;48.24
65972;SHT31;52726;48.852;9.152;2022-08-21T08:31:39;24.95;48.31
65972;SHT31;52726;48.852;9.152;2022-08-21T08:34:04;24.94;48.80
65972;SHT31;52726;48.852;9.152;2022-08-21T08:36:35;25.32;50.57
65972;SHT31;52726;48.852;9.152;2022-08-21T08:39:03;25.07;47.61
65972;SHT31;52726;48.852;9.152;2022-08-21T08:41:29;26.20;45.97
65972;SHT31;52726;48.852;9.152;2022-08-21T08:43:59;25.41;47.75
65972;SHT31;52726;48.852;9.152;2022-08-21T08:46:34;25.45;48.13
65972;SHT31;52726;48.852;9.152;2022-08-21T08:49:12;25.86;48.03
65972;SHT31;52726;48.852;9.152;2022-08-21T08:51:53;26.01;45.92
65972;SHT31;52726;48.852;9.152;2022-08-21T08:54:39;26.40;44.30
65972;SHT31;52726;48.852;9.152;2022-08-21T08:57:09;25.73;46.56
65972;SHT31;52726;48.852;9.152;2022-08-21T08:59:41;25.93;47.43
65972;SHT31;52726;48.852;9.152;2022-08-21T09:02:11;26.10;46.59
65972;SHT31;52726;48.852;9.152;2022-08-21T09:04:37;26.27;45.94
65972;SHT31;52726;48.852;9.152;2022-08-21T09:12:55;26.21;44.88
65972;SHT31;52726;48.852;9.152;2022-08-21T09:26:19;26.17;44.27
65972;SHT31;52726;48.852;9.152;2022-08-21T09:28:46;26.42;43.76
65972;SHT31;52726;48.852;9.152;2022-08-21T09:31:30;26.04;43.66
65972;SHT31;52726;48.852;9.152;2022-08-21T09:34:26;26.58;42.58
65972;SHT31;52726;48.852;9.152;2022-08-21T09:36:51;26.83;44.41
65972;SHT31;52726;48.852;9.152;2022-08-21T09:39:32;26.83;42.50
65972;SHT31;52726;48.852;9.152;2022-08-21T09:42:07;26.38;44.43
65972;SHT31;52726;48.852;9.152;2022-08-21T09:44:35;27.18;41.04
65972;SHT31;52726;48.852;9.152;2022-08-21T09:47:06;26.88;41.51
65972;SHT31;52726;48.852;9.152;2022-08-21T09:49:34;26.47;43.60
65972;SHT31;52726;48.852;9.152;2022-08-21T09:52:02;27.13;41.56
65972;SHT31;52726;48.852;9.152;2022-08-21T09:54:37;27.88;38.82
65972;SHT31;52726;48.852;9.152;2022-08-21T09:59:54;26.47;41.57
65972;SHT31;52726;48.852;9.152;2022-08-21T10:05:01;26.88;40.70
65972;SHT31;52726;48.852;9.152;2022-08-21T10:07:30;27.03;41.39
65972;SHT31;52726;48.852;9.152;2022-08-21T10:10:03;28.08;40.41
65972;SHT31;52726;48.852;9.152;2022-08-21T10:15:51;27.03;43.71
65972;SHT31;52726;48.852;9.152;2022-08-21T10:21:04;27.31;41.25
65972;SHT31;52726;48.852;9.152;2022-08-21T10:39:50;26.65;40.40
65972;SHT31;52726;48.852;9.152;2022-08-21T10:47:35;26.55;41.61
65972;SHT31;52726;48.852;9.152;2022-08-21T10:55:37;26.99;38.93
65972;SHT31;52726;48.852;9.152;2022-08-21T11:00:47;27.47;39.14
65972;SHT31;52726;48.852;9.152;2022-08-21T11:05:54;28.08;38.33
65972;SHT31;52726;48.852;9.152;2022-08-21T11:08:26;27.99;38.02
65972;SHT31;52726;48.852;9.152;2022-08-21T11:11:05;26.89;38.79
65972;SHT31;52726;48.852;9.152;2022-08-21T11:13:43;26.35;41.55
65972;SHT31;52726;48.852;9.152;2022-08-21T11:16:40;26.55;38.44
65972;SHT31;52726;48.852;9.152;2022-08-21T11:19:22;27.11;40.04
65972;SHT31;52726;48.852;9.152;2022-08-21T11:22:02;26.42;39.78
65972;SHT31;52726;48.852;9.152;2022-08-21T11:27:05;26.75;41.48
65972;SHT31;52726;48.852;9.152;2022-08-21T11:29:34;26.59;38.72
65972;SHT31;52726;48.852;9.152;2022-08-21T11:32:24;26.95;38.37
65972;SHT31;52726;48.852;9.152;2022-08-21T11:50:51;26.98;37.20
65972;SHT31;52726;48.852;9.152;2022-08-21T11:55:51;27.57;36.49
65972;SHT31;52726;48.852;9.152;2022-08-21T12:00:59;26.78;37.80
65972;SHT31;52726;48.852;9.152;2022-08-21T12:03:36;27.36;36.68
65972;SHT31;52726;48.852;9.152;2022-08-21T12:06:09;27.24;36.53
65972;SHT31;52726;48.852;9.152;2022-08-21T12:08:41;26.45;38.74
65972;SHT31;52726;48.852;9.152;2022-08-21T12:11:24;26.23;36.62
65972;SHT31;52726;48.852;9.152;2022-08-21T12:14:12;27.31;37.97
65972;SHT31;52726;48.852;9.152;2022-08-21T12:16:40;27.23;36.56
65972;SHT31;52726;48.852;9.152;2022-08-21T12:21:34;27.57;37.84
65972;SHT31;52726;48.852;9.152;2022-08-21T12:26:56;26.95;37.39
65972;SHT31;52726;48.852;9.152;2022-08-21T12:29:30;27.10;37.67
65972;SHT31;52726;48.852;9.152;2022-08-21T12:32:02;27.18;37.56
65972;SHT31;52726;48.852;9.152;2022-08-21T12:34:38;27.36;36.72
65972;SHT31;52726;48.852;9.152;2022-08-21T12:37:30;26.79;36.85
65972;SHT31;52726;48.852;9.152;2022-08-21T12:40:04;27.38;35.72
65972;SHT31;52726;48.852;9.152;2022-08-21T12:42:41;27.00;38.46
65972;SHT31;52726;48.852;9.152;2022-08-21T12:45:20;26.99;37.32
65972;SHT31;52726;48.852;9.152;2022-08-21T12:47:56;26.72;37.39
65972;SHT31;52726;48.852;9.152;2022-08-21T12:50:49;27.24;36.91
65972;SHT31;52726;48.852;9.152;2022-08-21T12:53:37;27.53;37.22
65972;SHT31;52726;48.852;9.152;2022-08-21T12:56:09;26.76;35.57
65972;SHT31;52726;48.852;9.152;2022-08-21T12:58:35;26.68;36.61
65972;SHT31;52726;48.852;9.152;2022-08-21T13:01:12;26.96;38.24
65972;SHT31;52726;48.852;9.152;2022-08-21T13:03:38;27.14;37.31
65972;SHT31;52726;48.852;9.152;2022-08-21T13:06:06;27.30;37.08
65972;SHT31;52726;48.852;9.152;2022-08-21T13:08:34;27.13;35.10
65972;SHT31;52726;48.852;9.152;2022-08-21T13:11:05;27.31;37.33
65972;SHT31;52726;48.852;9.152;2022-08-21T13:13:31;27.22;35.45
65972;SHT31;52726;48.852;9.152;2022-08-21T13:16:04;26.79;37.34
65972;SHT31;52726;48.852;9.152;2022-08-21T13:18:32;26.51;37.83
65972;SHT31;52726;48.852;9.152;2022-08-21T13:21:07;26.52;37.40
65972;SHT31;52726;48.852;9.152;2022-08-21T13:23:34;26.68;38.95
65972;SHT31;52726;48.852;9.152;2022-08-21T13:26:00;27.02;37.08
65972;SHT31;52726;48.852;9.152;2022-08-21T13:28:35;27.29;36.47
65972;SHT31;52726;48.852;9.152;2022-08-21T13:31:07;27.48;37.18
65972;SHT31;52726;48.852;9.152;2022-08-21T13:33:36;27.47;35.71
65972;SHT31;52726;48.852;9.152;2022-08-21T13:36:11;27.44;35.69
65972;SHT31;52726;48.852;9.152;2022-08-21T13:38:40;27.26;34.38
65972;SHT31;52726;48.852;9.152;2022-08-21T13:43:44;27.44;35.89
65972;SHT31;52726;48.852;9.152;2022-08-21T13:46:12;27.51;36.08
65972;SHT31;52726;48.852;9.152;2022-08-21T13:48:38;27.59;34.61
65972;SHT31;52726;48.852;9.152;2022-08-21T13:51:04;27.51;34.40
65972;SHT31;52726;48.852;9.152;2022-08-21T13:53:45;27.43;35.03
65972;SHT31;52726;48.852;9.152;2022-08-21T13:56:27;27.54;35.82
65972;SHT31;52726;48.852;9.152;2022-08-21T13:58:54;27.55;34.63
65972;SHT31;52726;48.852;9.152;2022-08-21T14:01:38;27.38;36.34
65972;SHT31;52726;48.852;9.152;2022-08-21T14:04:22;27.53;36.92
65972;SHT31;52726;48.852;9.152;2022-08-21T14:06:48;27.53;36.55
65972;SHT31;52726;48.852;9.152;2022-08-21T14:11:52;27.27;35.67
65972;SHT31;52726;48.852;9.152;2022-08-21T14:14:30;27.18;37.62
65972;SHT31;52726;48.852;9.152;2022-08-21T14:17:02;27.06;35.10
65972;SHT31;52726;48.852;9.152;2022-08-21T14:19:45;27.43;34.90
65972;SHT31;52726;48.852;9.152;2022-08-21T14:25:05;27.55;35.83
65972;SHT31;52726;48.852;9.152;2022-08-21T14:27:32;27.53;33.33
65972;SHT31;52726;48.852;9.152;2022-08-21T14:30:08;27.66;34.75
65972;SHT31;52726;48.852;9.152;2022-08-21T14:32:39;27.84;33.89
65972;SHT31;52726;48.852;9.152;2022-08-21T14:35:06;27.84;32.77
65972;SHT31;52726;48.852;9.152;2022-08-21T14:37:32;27.66;32.82
65972;SHT31;52726;48.852;9.152;2022-08-21T14:39:57;27.78;32.80
65972;SHT31;52726;48.852;9.152;2022-08-21T14:42:24;27.84;34.39
65972;SHT31;52726;48.852;9.152;2022-08-21T14:44:50;27.95;32.72
65972;SHT31;52726;48.852;9.152;2022-08-21T14:47:15;27.99;35.13
65972;SHT31;52726;48.852;9.152;2022-08-21T14:49:41;28.01;34.17
65972;SHT31;52726;48.852;9.152;2022-08-21T14:52:06;28.05;34.76
65972;SHT31;52726;48.852;9.152;2022-08-21T14:54:32;28.27;34.76
65972;SHT31;52726;48.852;9.152;2022-08-21T14:57:04;28.35;33.49
65972;SHT31;52726;48.852;9.152;2022-08-21T14:59:30;28.23;34.31
65972;SHT31;52726;48.852;9.152;2022-08-21T15:01:57;27.88;32.35
65972;SHT31;52726;48.852;9.152;2022-08-21T15:04:23;27.78;35.64
65972;SHT31;52726;48.852;9.152;2022-08-21T15:06:48;27.53;33.51
65972;SHT31;52726;48.852;9.152;2022-08-21T15:09:14;26.93;34.49
65972;SHT31;52726;48.852;9.152;2022-08-21T15:11:39;26.78;34.18
65972;SHT31;52726;48.852;9.152;2022-08-21T15:14:08;26.83;36.69
65972;SHT31;52726;48.852;9.152;2022-08-21T15:16:35;26.99;34.84
65972;SHT31;52726;48.852;9.152;2022-08-21T15:19:01;27.41;34.14
65972;SHT31;52726;48.852;9.152;2022-08-21T15:21:27;27.26;35.21
65972;SHT31;52726;48.852;9.152;2022-08-21T15:23:52;27.11;36.13
65972;SHT31;52726;48.852;9.152;2022-08-21T15:26:20;26.99;37.56
65972;SHT31;52726;48.852;9.152;2022-08-21T15:28:47;26.78;38.50
65972;SHT31;52726;48.852;9.152;2022-08-21T15:31:12;26.49;40.34
65972;SHT31;52726;48.852;9.152;2022-08-21T15:33:38;26.44;39.42
65972;SHT31;52726;48.852;9.152;2022-08-21T15:36:03;26.27;40.09
65972;SHT31;52726;48.852;9.152;2022-08-21T15:38:28;26.20;40.46
65972;SHT31;52726;48.852;9.152;2022-08-21T15:40:54;26.20;41.05
65972;SHT31;52726;48.852;9.152;2022-08-21T15:43:29;26.17;39.70
65972;SHT31;52726;48.852;9.152;2022-08-21T15:45:55;26.20;39.88
65972;SHT31;52726;48.852;9.152;2022-08-21T15:48:21;26.47;36.62
65972;SHT31;52726;48.852;9.152;2022-08-21T15:50:47;26.67;35.18
65972;SHT31;52726;48.852;9.152;2022-08-21T15:53:13;26.83;36.60
65972;SHT31;52726;48.852;9.152;2022-08-21T15:55:38;26.86;35.98
65972;SHT31;52726;48.852;9.152;2022-08-21T15:58:04;26.88;35.74
65972;SHT31;52726;48.852;9.152;2022-08-21T16:00:31;27.00;34.58
65972;SHT31;52726;48.852;9.152;2022-08-21T16:02:58;27.10;33.72
65972;SHT31;52726;48.852;9.152;2022-08-21T16:05:24;27.23;33.76
65972;SHT31;52726;48.852;9.152;2022-08-21T16:07:49;27.03;35.70
65972;SHT31;52726;48.852;9.152;2022-08-21T16:10:18;27.02;37.44
65972;SHT31;52726;48.852;9.152;2022-08-21T16:12:51;26.95;35.18
65972;SHT31;52726;48.852;9.152;2022-08-21T16:15:18;26.85;35.90
65972;SHT31;52726;48.852;9.152;2022-08-21T16:17:45;27.06;34.37
65972;SHT31;52726;48.852;9.152;2022-08-21T16:20:18;26.92;35.46
65972;SHT31;52726;48.852;9.152;2022-08-21T16:22:44;26.98;35.71
65972;SHT31;52726;48.852;9.152;2022-08-21T16:25:11;27.02;35.40
65972;SHT31;52726;48.852;9.152;2022-08-21T16:27:37;27.10;33.17
65972;SHT31;52726;48.852;9.152;2022-08-21T16:30:04;26.83;35.78
65972;SHT31;52726;48.852;9.152;2022-08-21T16:32:30;26.55;35.71
65972;SHT31;52726;48.852;9.152;2022-08-21T16:34:55;26.48;36.05
65972;SHT31;52726;48.852;9.152;2022-08-21T16:37:21;26.55;35.01
65972;SHT31;52726;48.852;9.152;2022-08-21T16:39:47;26.55;35.13
65972;SHT31;52726;48.852;9.152;2022-08-21T16:42:14;26.49;34.97
65972;SHT31;52726;48.852;9.152;2022-08-21T16:44:42;26.53;37.62
65972;SHT31;52726;48.852;9.152;2022-08-21T16:47:07;26.52;38.57
65972;SHT31;52726;48.852;9.152;2022-08-21T16:49:33;26.13;36.94
65972;SHT31;52726;48.852;9.152;2022-08-21T16:51:58;26.12;37.98
65972;SHT31;52726;48.852;9.152;2022-08-21T16:54:24;25.96;37.15
65972;SHT31;52726;48.852;9.152;2022-08-21T16:56:50;25.93;36.59
65972;SHT31;52726;48.852;9.152;2022-08-21T16:59:15;25.93;37.75
65972;SHT31;52726;48.852;9.152;2022-08-21T17:01:41;25.97;37.37
65972;SHT31;52726;48.852;9.152;2022-08-21T17:04:07;25.93;38.82
65972;SHT31;52726;48.852;9.152;2022-08-21T17:06:33;25.83;39.10
65972;SHT31;52726;48.852;9.152;2022-08-21T17:08:59;25.73;37.29
65972;SHT31;52726;48.852;9.152;2022-08-21T17:11:32;25.76;39.10
65972;SHT31;52726;48.852;9.152;2022-08-21T17:14:00;25.69;37.33